Thompson, Iowa
Current Conditions -  °F | °C
As of 4:30 AM on Sunday 23 Nov 2014 (Local Time) from KFXY Reporting Station
Haze Haze  
Wind Chill: 50°   Ceiling: 300
Heat Index: 50°   Visibility: 4mi
Dew Point: 50°   Wind: 10mph
Humidity: 100%   Direction: 180°S
Pressure: 29.49"   Gusts: NA
Location:  43.37°N, 93.77°W
Report Text: KFXY 231030Z AUTO 18009KT 4SM BR OVC003 10/10 A2949 RMK AO2
Loading
Personal Weather Stations






























Interactive Weather Map New forecast layout! Learn more

10-Day Weather Forecast

Advertisements
Track Severe Weather on mobile